首页
METAR-TAF:

METAR-TAF

机场 :

Hayden, 科羅拉多州, 美国

纬度: 40-29N, 经度: 107-13W, 海拔: 2012米

当前天气观测

该预报发布于55分钟前的10:56 UTC
风速9节,风向东转东南
温度 -6°C
湿度 86%
气压 1011 hPa
能見度: 16.1公里
阴天层高于4800英尺

METAR: KHDN 241056Z AUTO 11009KT 10SM OVC048 M06/M08 A2984 RMK AO2 SLP129 T10561083 FZRANO

时间: 04:51 (11:51 UTC)

预报

该预报发布于29分钟前的11:22 UTC
预报有效从24日的 12点(UTC)到 25日的 12点(UTC)
风速9节,风向东转东南
能見度: 10公里
阴天层高于5000英尺
从 24日的 1500点(UTC)
风速8节,风向东转东南
能見度: 10公里
多云层高于10000英尺
从 24日的 1900点(UTC)
风速4节,风向西南
能見度: 10公里
阴天层高于4000英尺
从 25日的 0300点(UTC)
风速5节,风向南转南东
能見度: 10公里
阴天层高于2000英尺

TAF: KHDN 241122Z 2412/2512 11009KT P6SM OVC050 FM241500 12008KT P6SM BKN100 FM241900 22004KT P6SM OVC040 FM250300 15005KT P6SM OVC020

超过4000个机场的气象观测和天气预报(METAR&TAF报告)。

可查询的气象台以黄色和红色小点在地图上表示。

将鼠标移到小点上方,可查看气象台名称。

然后点击查看天气观测和预报。

如需切换地图:点击带黑十字的绿色按钮放大地图;点击带横线的绿色按钮缩小地图;或者点击绿色箭头查看邻近地区的地图。


METAR-TAF: